createdAt,value
2018-06-11T00:02:17.701Z,20
2018-06-11T00:12:17.648Z,19
2018-06-11T00:22:17.727Z,20
2018-06-11T00:32:17.656Z,19
2018-06-11T00:42:17.592Z,21
2018-06-11T00:52:17.715Z,20
2018-06-11T01:02:17.659Z,17
2018-06-11T01:12:17.682Z,18
2018-06-11T01:22:17.679Z,17
2018-06-11T01:32:17.668Z,18
2018-06-11T01:42:17.725Z,16
2018-06-11T01:52:17.655Z,17
2018-06-11T02:02:17.634Z,17
2018-06-11T02:12:17.704Z,16
2018-06-11T02:22:17.677Z,16
2018-06-11T02:32:17.585Z,13
2018-06-11T02:42:17.657Z,13
2018-06-11T02:52:17.654Z,12
2018-06-11T03:02:17.688Z,13
2018-06-11T03:12:17.614Z,13
2018-06-11T03:22:17.606Z,12
2018-06-11T03:32:17.735Z,13
2018-06-11T03:42:17.700Z,11
2018-06-11T03:52:17.651Z,10
2018-06-11T04:02:17.846Z,9
2018-06-11T04:12:17.636Z,8
2018-06-11T04:22:17.680Z,8
2018-06-11T04:32:17.617Z,8
2018-06-11T04:42:17.760Z,7
2018-06-11T04:52:17.979Z,7
2018-06-11T05:02:17.709Z,8
2018-06-11T05:12:17.887Z,8
2018-06-11T05:22:17.645Z,8
2018-06-11T05:32:17.630Z,8
2018-06-11T05:42:17.776Z,8
2018-06-11T05:52:17.678Z,8
2018-06-11T06:02:17.704Z,7
2018-06-11T06:12:17.777Z,8
2018-06-11T06:22:17.659Z,8
2018-06-11T06:32:17.714Z,7
2018-06-11T06:42:17.666Z,7
2018-06-11T06:52:17.710Z,7
2018-06-11T07:02:17.691Z,7
2018-06-11T07:12:17.820Z,7
2018-06-11T07:22:17.697Z,7
2018-06-11T07:32:17.767Z,7
2018-06-11T07:42:17.783Z,8
2018-06-11T07:52:17.765Z,8
2018-06-11T08:02:17.800Z,9
2018-06-11T08:12:17.785Z,10
2018-06-11T08:22:17.662Z,8
2018-06-11T08:32:17.844Z,7
2018-06-11T08:42:17.880Z,8
2018-06-11T08:52:17.871Z,8
2018-06-11T09:02:17.787Z,9
2018-06-11T09:12:17.685Z,10
2018-06-11T09:22:17.749Z,11
2018-06-11T09:32:17.665Z,10
2018-06-11T09:42:17.823Z,11
2018-06-11T09:52:17.706Z,8
2018-06-11T10:02:18.757Z,9
2018-06-11T10:12:17.807Z,8
2018-06-11T10:22:17.800Z,8
2018-06-11T10:32:17.822Z,8
2018-06-11T10:42:17.765Z,9
2018-06-11T10:52:17.885Z,9
2018-06-11T11:02:17.872Z,7
2018-06-11T11:12:17.838Z,9
2018-06-11T11:22:17.806Z,9
2018-06-11T11:32:17.779Z,11
2018-06-11T11:42:17.728Z,9
2018-06-11T11:52:17.852Z,11
2018-06-11T12:02:17.979Z,12
2018-06-11T12:12:17.767Z,11
2018-06-11T12:22:17.986Z,10
2018-06-11T12:32:17.814Z,9
2018-06-11T12:42:17.827Z,10
2018-06-11T12:52:17.732Z,11
2018-06-11T13:02:17.745Z,11
2018-06-11T13:12:17.802Z,12
2018-06-11T13:22:17.754Z,10
2018-06-11T13:32:17.764Z,8
2018-06-11T13:42:17.963Z,7
2018-06-11T13:52:17.874Z,7
2018-06-11T14:02:17.851Z,7
2018-06-11T14:12:17.842Z,6
2018-06-11T14:22:17.880Z,7
2018-06-11T14:32:17.829Z,7
2018-06-11T14:42:17.790Z,7
2018-06-11T14:52:17.857Z,6
2018-06-11T15:02:17.810Z,6
2018-06-11T15:12:17.801Z,6
2018-06-11T15:22:17.887Z,7
2018-06-11T15:32:17.823Z,6
2018-06-11T15:42:17.839Z,9
2018-06-11T15:52:17.851Z,9
2018-06-11T16:02:18.001Z,7
2018-06-11T16:12:17.792Z,7
2018-06-11T16:22:21.435Z,6
2018-06-11T16:32:17.805Z,6
2018-06-11T16:42:17.794Z,7
2018-06-11T16:52:17.913Z,6
2018-06-11T17:02:17.852Z,6
2018-06-11T17:12:17.815Z,5
2018-06-11T17:22:17.972Z,5
2018-06-11T17:32:17.831Z,6
2018-06-11T17:42:17.911Z,5
2018-06-11T17:52:17.879Z,6
2018-06-11T18:02:18.874Z,6
2018-06-11T18:12:18.139Z,6
2018-06-11T18:22:17.999Z,6
2018-06-11T18:32:17.869Z,6
2018-06-11T18:42:17.940Z,6
2018-06-11T18:52:17.828Z,6
2018-06-11T19:02:18.095Z,6
2018-06-11T19:12:18.109Z,7
2018-06-11T19:22:18.003Z,6
2018-06-11T19:32:17.926Z,6
2018-06-11T19:42:18.069Z,7
2018-06-11T19:52:18.119Z,7
2018-06-11T20:02:18.109Z,7
2018-06-11T20:12:18.056Z,6
2018-06-11T20:22:17.991Z,8
2018-06-11T20:32:18.316Z,8
2018-06-11T20:42:18.036Z,8
2018-06-11T20:52:18.309Z,8
2018-06-11T21:02:17.970Z,8
2018-06-11T21:12:17.876Z,11
2018-06-11T21:22:17.901Z,9
2018-06-11T21:32:18.234Z,10
2018-06-11T21:44:01.600Z,9
2018-06-11T21:52:19.917Z,10
2018-06-11T22:02:17.852Z,10
2018-06-11T22:12:17.895Z,9
2018-06-11T22:22:17.834Z,11
2018-06-11T22:32:17.891Z,11
2018-06-11T22:42:17.951Z,11
2018-06-11T22:52:18.957Z,11
2018-06-11T23:02:18.893Z,11
2018-06-11T23:12:34.510Z,11
2018-06-11T23:22:18.016Z,12
2018-06-11T23:32:17.907Z,12
2018-06-11T23:42:17.815Z,13
2018-06-11T23:52:22.759Z,14
